createdAt,value
2019-05-11T00:01:55.545Z,1.25
2019-05-11T00:04:24.447Z,1.32
2019-05-11T00:06:53.344Z,0.90
2019-05-11T00:09:22.902Z,1.25
2019-05-11T00:11:51.869Z,0.95
2019-05-11T00:14:20.771Z,1.10
2019-05-11T00:16:49.707Z,1.25
2019-05-11T00:19:18.605Z,1.12
2019-05-11T00:21:47.544Z,1.05
2019-05-11T00:24:16.530Z,1.07
2019-05-11T00:26:45.489Z,0.90
2019-05-11T00:29:14.412Z,1.37
2019-05-11T00:31:43.401Z,1.00
2019-05-11T00:34:12.294Z,1.00
2019-05-11T00:36:41.218Z,0.80
2019-05-11T00:39:10.140Z,1.00
2019-05-11T00:41:39.066Z,1.25
2019-05-11T00:44:08.023Z,1.00
2019-05-11T00:46:36.924Z,0.90
2019-05-11T00:49:05.810Z,0.90
2019-05-11T00:51:34.780Z,1.35
2019-05-11T00:54:03.697Z,1.00
2019-05-11T00:56:32.582Z,0.95
2019-05-11T00:59:01.542Z,1.02
2019-05-11T01:01:30.581Z,1.40
2019-05-11T01:03:59.471Z,1.15
2019-05-11T01:06:28.444Z,1.20
2019-05-11T01:08:57.458Z,1.50
2019-05-11T01:11:26.373Z,1.27
2019-05-11T01:13:55.338Z,1.20
2019-05-11T01:16:24.252Z,1.00
2019-05-11T01:18:53.144Z,1.27
2019-05-11T01:21:22.090Z,1.20
2019-05-11T01:23:51.007Z,1.47
2019-05-11T01:26:19.901Z,1.20
2019-05-11T01:28:49.946Z,1.40
2019-05-11T01:31:18.908Z,2.10
2019-05-11T01:33:47.822Z,1.92
2019-05-11T01:36:16.885Z,2.00
2019-05-11T01:38:45.806Z,1.80
2019-05-11T01:41:14.704Z,2.20
2019-05-11T01:43:43.665Z,1.37
2019-05-11T01:46:12.579Z,1.90
2019-05-11T01:48:41.866Z,1.72
2019-05-11T01:51:10.832Z,1.90
2019-05-11T01:53:39.744Z,1.92
2019-05-11T01:56:08.644Z,2.52
2019-05-11T01:58:37.596Z,2.17
2019-05-11T02:01:06.637Z,2.55
2019-05-11T02:03:35.830Z,2.17
2019-05-11T02:06:04.887Z,2.70
2019-05-11T02:08:33.796Z,2.05
2019-05-11T02:11:15.397Z,1.92
2019-05-11T02:13:33.393Z,1.60
2019-05-11T02:16:02.342Z,1.98
2019-05-11T02:18:31.643Z,2.47
2019-05-11T02:21:00.591Z,1.60
2019-05-11T02:23:29.489Z,1.52
2019-05-11T02:25:58.411Z,2.00
2019-05-11T02:28:28.345Z,2.05
2019-05-11T02:30:57.545Z,1.80
2019-05-11T02:33:26.444Z,1.77
2019-05-11T02:35:55.377Z,2.22
2019-05-11T02:38:24.298Z,2.00
2019-05-11T02:40:53.425Z,1.92
2019-05-11T02:43:22.409Z,1.75
2019-05-11T02:45:51.408Z,2.35
2019-05-11T02:48:20.487Z,2.12
2019-05-11T02:50:50.750Z,1.87
2019-05-11T02:53:20.892Z,2.47
2019-05-11T02:55:51.051Z,1.90
2019-05-11T02:58:19.974Z,1.77
2019-05-11T03:00:50.726Z,1.70
2019-05-11T03:03:19.692Z,1.42
2019-05-11T03:05:48.626Z,2.02
2019-05-11T03:08:17.549Z,2.20
2019-05-11T03:10:46.491Z,2.08
2019-05-11T03:13:15.420Z,2.10
2019-05-11T03:15:44.389Z,1.82
2019-05-11T03:18:13.321Z,2.17
2019-05-11T03:20:42.255Z,1.98
2019-05-11T03:23:11.153Z,2.20
2019-05-11T03:25:40.113Z,2.30
2019-05-11T03:28:09.056Z,2.50
2019-05-11T03:30:37.963Z,2.60
2019-05-11T03:33:06.904Z,2.12
2019-05-11T03:35:35.842Z,2.52
2019-05-11T03:38:04.846Z,1.82
2019-05-11T03:40:33.787Z,1.80
2019-05-11T03:43:02.789Z,2.20
2019-05-11T03:45:31.685Z,1.92
2019-05-11T03:48:00.643Z,2.25
2019-05-11T03:50:29.540Z,2.00
2019-05-11T03:52:58.429Z,1.87
2019-05-11T03:55:27.423Z,2.25
2019-05-11T03:57:56.424Z,2.00
2019-05-11T04:00:25.355Z,2.00
2019-05-11T04:02:54.301Z,1.95
2019-05-11T04:05:23.195Z,1.95
2019-05-11T04:07:52.107Z,1.75
2019-05-11T04:10:24.875Z,1.50
2019-05-11T04:12:51.628Z,2.00
2019-05-11T04:15:20.648Z,1.80
2019-05-11T04:17:49.631Z,1.65
2019-05-11T04:20:18.596Z,1.90
2019-05-11T04:22:47.505Z,1.77
2019-05-11T04:25:16.461Z,1.50
2019-05-11T04:27:45.362Z,1.50
2019-05-11T04:30:14.369Z,1.60
2019-05-11T04:32:43.345Z,1.57
2019-05-11T04:35:12.315Z,1.30
2019-05-11T04:37:46.164Z,1.50
2019-05-11T04:40:15.174Z,1.60
2019-05-11T04:42:55.177Z,1.52
2019-05-11T04:45:14.724Z,1.40
2019-05-11T04:47:43.697Z,1.87
2019-05-11T04:50:12.785Z,1.40
2019-05-11T04:52:41.886Z,1.60
2019-05-11T04:55:11.016Z,1.40
2019-05-11T04:57:40.078Z,1.60
2019-05-11T05:00:09.370Z,1.40
2019-05-11T05:02:38.305Z,1.35
2019-05-11T05:05:07.445Z,1.52
2019-05-11T05:07:36.372Z,1.45
2019-05-11T05:10:06.526Z,1.92
2019-05-11T05:12:35.434Z,1.20
2019-05-11T05:15:05.551Z,1.82
2019-05-11T05:17:34.531Z,1.30
2019-05-11T05:20:04.153Z,1.35
2019-05-11T05:22:33.047Z,1.80
2019-05-11T05:25:02.006Z,1.65
2019-05-11T05:27:30.906Z,1.80
2019-05-11T05:29:59.979Z,2.00
2019-05-11T05:32:28.978Z,1.92
2019-05-11T05:34:57.935Z,1.52
2019-05-11T05:37:26.825Z,2.20
2019-05-11T05:39:55.769Z,1.55
2019-05-11T05:42:24.730Z,1.22
2019-05-11T05:44:53.680Z,1.77
2019-05-11T05:47:22.635Z,1.45
2019-05-11T05:49:51.539Z,1.50
2019-05-11T05:52:20.543Z,1.30
2019-05-11T05:54:49.454Z,1.30
2019-05-11T05:57:18.365Z,1.45
2019-05-11T05:59:49.148Z,1.40
2019-05-11T06:02:18.093Z,1.12
2019-05-11T06:04:47.048Z,1.40
2019-05-11T06:07:16.017Z,1.60
2019-05-11T06:09:45.006Z,1.00
2019-05-11T06:12:13.947Z,1.30
2019-05-11T06:14:42.919Z,1.47
2019-05-11T06:17:12.247Z,1.07
2019-05-11T06:19:41.164Z,1.40
2019-05-11T06:22:10.348Z,1.10
2019-05-11T06:24:39.254Z,1.25
2019-05-11T06:27:08.268Z,1.10
2019-05-11T06:29:39.479Z,1.25
2019-05-11T06:32:08.418Z,1.10
2019-05-11T06:34:37.404Z,0.82
2019-05-11T06:37:06.320Z,0.95
2019-05-11T06:39:35.259Z,1.10
2019-05-11T06:42:04.209Z,1.02
2019-05-11T06:44:33.142Z,1.12
2019-05-11T06:47:02.168Z,0.90
2019-05-11T06:49:31.132Z,1.17
2019-05-11T06:52:00.136Z,0.95
2019-05-11T06:54:29.068Z,0.85
2019-05-11T06:56:58.020Z,0.95
2019-05-11T06:59:26.966Z,0.88
2019-05-11T07:01:55.871Z,0.80
2019-05-11T07:04:24.825Z,0.65
2019-05-11T07:06:53.731Z,0.88
2019-05-11T07:09:22.646Z,1.10
2019-05-11T07:11:51.649Z,0.80
2019-05-11T07:14:21.579Z,0.72
2019-05-11T07:16:50.725Z,0.80
2019-05-11T07:19:19.672Z,0.65
2019-05-11T07:21:48.621Z,0.98
2019-05-11T07:24:17.536Z,0.65
2019-05-11T07:26:46.571Z,0.50
2019-05-11T07:29:15.480Z,0.55
2019-05-11T07:31:44.471Z,0.57
2019-05-11T07:34:13.409Z,0.70
2019-05-11T07:36:42.296Z,0.70
2019-05-11T07:39:11.206Z,0.60
2019-05-11T07:41:40.184Z,0.75
2019-05-11T07:44:10.081Z,0.50
2019-05-11T07:46:39.240Z,0.50
2019-05-11T07:49:08.842Z,0.50
2019-05-11T07:51:38.897Z,1.05
2019-05-11T07:54:08.523Z,0.60
2019-05-11T07:56:39.010Z,0.68
2019-05-11T07:59:08.443Z,0.60
2019-05-11T08:01:38.723Z,0.60
2019-05-11T08:04:07.992Z,0.72
2019-05-11T08:06:39.036Z,0.90
2019-05-11T08:09:08.531Z,0.65
2019-05-11T08:11:38.955Z,0.60
2019-05-11T08:14:08.074Z,0.70
2019-05-11T08:16:39.053Z,0.85
2019-05-11T08:19:10.594Z,0.60
2019-05-11T08:21:38.809Z,1.00
2019-05-11T08:24:09.149Z,0.60
2019-05-11T08:26:38.717Z,0.60
2019-05-11T08:29:08.174Z,0.60
2019-05-11T08:31:38.546Z,0.80
2019-05-11T08:34:08.861Z,0.80
2019-05-11T08:36:38.103Z,0.60
2019-05-11T08:39:10.847Z,0.70
2019-05-11T08:41:39.804Z,0.72
2019-05-11T08:44:09.012Z,0.70
2019-05-11T08:46:38.783Z,0.70
2019-05-11T08:49:08.678Z,0.42
2019-05-11T08:51:41.168Z,0.50
2019-05-11T08:54:12.780Z,0.50
2019-05-11T08:56:41.821Z,0.50
2019-05-11T08:59:10.782Z,0.50
2019-05-11T09:01:39.724Z,0.50
2019-05-11T09:04:09.031Z,0.50
2019-05-11T09:06:38.192Z,0.40
2019-05-11T09:09:08.882Z,0.35
2019-05-11T09:11:38.957Z,0.45
2019-05-11T09:14:08.447Z,0.50
2019-05-11T09:16:39.014Z,0.42
2019-05-11T09:19:11.773Z,0.75
2019-05-11T09:21:40.725Z,0.50
2019-05-11T09:24:10.607Z,0.30
2019-05-11T09:26:39.675Z,0.40
2019-05-11T09:29:09.996Z,0.50
2019-05-11T09:31:38.986Z,0.45
2019-05-11T09:34:09.061Z,0.30
2019-05-11T09:36:38.852Z,0.50
2019-05-11T09:39:08.890Z,0.40
2019-05-11T09:41:38.438Z,0.40
2019-05-11T09:44:08.925Z,0.40
2019-05-11T09:46:38.569Z,0.33
2019-05-11T09:49:08.183Z,0.35
2019-05-11T09:51:38.104Z,0.53
2019-05-11T09:54:07.970Z,0.45
2019-05-11T09:56:38.173Z,0.40
2019-05-11T09:59:08.826Z,0.57
2019-05-11T10:01:38.093Z,0.70
2019-05-11T10:04:09.044Z,0.50
2019-05-11T10:06:39.110Z,0.50
2019-05-11T10:09:08.306Z,0.57
2019-05-11T10:11:39.692Z,0.70
2019-05-11T10:14:09.242Z,0.42
2019-05-11T10:16:38.784Z,0.80
2019-05-11T10:19:08.466Z,0.50
2019-05-11T10:21:38.429Z,0.60
2019-05-11T10:24:08.650Z,0.40
2019-05-11T10:26:39.151Z,1.05
2019-05-11T10:29:10.416Z,0.42
2019-05-11T10:31:41.692Z,0.55
2019-05-11T10:34:10.937Z,0.40
2019-05-11T10:36:42.039Z,0.50
2019-05-11T10:39:10.957Z,0.55
2019-05-11T10:41:39.850Z,0.60
2019-05-11T10:44:08.818Z,0.60
2019-05-11T10:46:38.182Z,0.68
2019-05-11T10:49:08.070Z,0.50
2019-05-11T10:51:38.327Z,0.70
2019-05-11T10:54:08.753Z,0.35
2019-05-11T10:56:38.829Z,0.57
2019-05-11T10:59:08.141Z,0.60
2019-05-11T11:01:38.002Z,0.72
2019-05-11T11:04:07.844Z,0.50
2019-05-11T11:06:38.691Z,0.60
2019-05-11T11:09:10.049Z,0.50
2019-05-11T11:11:39.026Z,0.42
2019-05-11T11:14:08.698Z,0.68
2019-05-11T11:16:42.412Z,0.40
2019-05-11T11:19:08.750Z,0.50
2019-05-11T11:21:38.312Z,0.57
2019-05-11T11:24:07.766Z,0.40
2019-05-11T11:26:38.036Z,0.50
2019-05-11T11:29:11.941Z,0.60
2019-05-11T11:31:42.760Z,0.60
2019-05-11T11:34:11.632Z,0.50
2019-05-11T11:36:40.571Z,0.60
2019-05-11T11:39:09.525Z,0.42
2019-05-11T11:41:38.419Z,0.50
2019-05-11T11:44:08.094Z,0.50
2019-05-11T11:46:51.390Z,0.60
2019-05-11T11:49:09.529Z,0.50
2019-05-11T11:51:40.387Z,0.50
2019-05-11T11:54:09.303Z,1.15
2019-05-11T11:56:38.357Z,0.62
2019-05-11T11:59:08.496Z,0.60
2019-05-11T12:01:39.152Z,0.85
2019-05-11T12:04:08.440Z,0.60
2019-05-11T12:06:38.593Z,0.60
2019-05-11T12:09:09.193Z,0.50
2019-05-11T12:11:38.323Z,0.50
2019-05-11T12:14:08.713Z,0.33
2019-05-11T12:16:38.831Z,0.60
2019-05-11T12:19:08.340Z,0.55
2019-05-11T12:21:40.613Z,1.15
2019-05-11T12:24:09.868Z,0.50
2019-05-11T12:26:39.122Z,0.47
2019-05-11T12:29:15.045Z,0.30
2019-05-11T12:31:43.954Z,0.53
2019-05-11T12:34:12.903Z,0.72
2019-05-11T12:36:41.832Z,0.42
2019-05-11T12:39:10.742Z,0.50
2019-05-11T12:41:39.718Z,0.40
2019-05-11T12:44:10.547Z,0.35
2019-05-11T12:46:39.638Z,0.40
2019-05-11T12:49:08.592Z,0.50
2019-05-11T12:51:38.263Z,0.50
2019-05-11T12:54:08.320Z,0.50
2019-05-11T12:56:38.279Z,0.30
2019-05-11T12:59:08.227Z,0.50
2019-05-11T13:01:38.149Z,0.57
2019-05-11T13:04:08.914Z,0.23
2019-05-11T13:06:38.585Z,0.40
2019-05-11T13:09:08.624Z,0.60
2019-05-11T13:11:37.948Z,0.50
2019-05-11T13:14:07.967Z,0.60
2019-05-11T13:16:37.873Z,0.80
2019-05-11T13:19:08.306Z,0.50
2019-05-11T13:21:38.277Z,0.30
2019-05-11T13:24:08.328Z,0.47
2019-05-11T13:26:37.980Z,0.30
2019-05-11T13:29:07.736Z,0.42
2019-05-11T13:31:38.500Z,0.75
2019-05-11T13:34:08.361Z,0.47
2019-05-11T13:36:38.120Z,0.30
2019-05-11T13:39:08.917Z,0.42
2019-05-11T13:41:38.408Z,0.40
2019-05-11T13:44:08.048Z,0.40
2019-05-11T13:46:38.885Z,0.60
2019-05-11T13:49:08.557Z,0.55
2019-05-11T13:51:38.767Z,0.42
2019-05-11T13:54:08.091Z,0.70
2019-05-11T13:56:37.949Z,0.78
2019-05-11T13:59:10.417Z,0.53
2019-05-11T14:01:40.763Z,0.53
2019-05-11T14:04:09.736Z,0.65
2019-05-11T14:06:38.693Z,0.60
2019-05-11T14:09:08.877Z,0.53
2019-05-11T14:11:39.104Z,0.90
2019-05-11T14:14:08.153Z,0.70
2019-05-11T14:16:37.911Z,0.60
2019-05-11T14:19:08.674Z,0.70
2019-05-11T14:21:38.509Z,0.47
2019-05-11T14:24:07.957Z,0.80
2019-05-11T14:26:38.631Z,1.00
2019-05-11T14:29:08.546Z,0.80
2019-05-11T14:31:38.754Z,0.80
2019-05-11T14:34:08.834Z,0.60
2019-05-11T14:36:38.742Z,0.70
2019-05-11T14:39:08.540Z,0.60
2019-05-11T14:41:38.310Z,0.70
2019-05-11T14:44:08.830Z,0.60
2019-05-11T14:46:38.557Z,0.60
2019-05-11T14:49:08.093Z,0.75
2019-05-11T14:51:39.084Z,0.47
2019-05-11T14:54:08.370Z,0.60
2019-05-11T14:56:38.120Z,0.78
2019-05-11T14:59:08.989Z,0.85
2019-05-11T15:01:38.390Z,0.98
2019-05-11T15:04:09.889Z,0.60
2019-05-11T15:06:38.867Z,0.50
2019-05-11T15:09:08.687Z,0.60
2019-05-11T15:11:38.884Z,0.68
2019-05-11T15:14:08.297Z,0.72
2019-05-11T15:16:38.343Z,0.72
2019-05-11T15:19:08.003Z,0.65
2019-05-11T15:21:38.756Z,1.00
2019-05-11T15:24:09.079Z,0.90
2019-05-11T15:26:38.309Z,0.55
2019-05-11T15:29:08.138Z,0.53
2019-05-11T15:31:38.112Z,0.93
2019-05-11T15:34:08.634Z,0.40
2019-05-11T15:36:38.726Z,0.60
2019-05-11T15:39:08.230Z,0.68
2019-05-11T15:41:38.770Z,0.93
2019-05-11T15:44:11.360Z,0.85
2019-05-11T15:46:39.022Z,1.25
2019-05-11T15:49:08.789Z,1.12
2019-05-11T15:51:41.082Z,0.98
2019-05-11T15:54:08.603Z,1.07
2019-05-11T15:56:38.523Z,0.75
2019-05-11T15:59:08.705Z,0.90
2019-05-11T16:01:40.939Z,0.80
2019-05-11T16:04:09.090Z,0.90
2019-05-11T16:06:38.252Z,0.80
2019-05-11T16:09:08.542Z,0.88
2019-05-11T16:11:38.812Z,0.53
2019-05-11T16:14:08.758Z,1.00
2019-05-11T16:16:39.025Z,1.05
2019-05-11T16:19:14.455Z,0.98
2019-05-11T16:21:39.202Z,0.90
2019-05-11T16:24:08.322Z,1.22
2019-05-11T16:26:37.352Z,1.27
2019-05-11T16:29:08.548Z,0.55
2019-05-11T16:31:37.897Z,0.95
2019-05-11T16:34:08.062Z,0.95
2019-05-11T16:36:38.974Z,0.80
2019-05-11T16:39:10.032Z,1.00
2019-05-11T16:41:38.565Z,0.98
2019-05-11T16:44:07.987Z,0.90
2019-05-11T16:46:38.895Z,0.80
2019-05-11T16:49:10.757Z,0.98
2019-05-11T16:51:38.880Z,1.17
2019-05-11T16:54:08.245Z,0.88
2019-05-11T16:56:38.321Z,1.20
2019-05-11T16:59:08.172Z,1.57
2019-05-11T17:01:37.897Z,1.45
2019-05-11T17:04:07.118Z,1.12
2019-05-11T17:06:38.255Z,1.10
2019-05-11T17:09:08.880Z,1.27
2019-05-11T17:11:38.333Z,0.90
2019-05-11T17:14:08.265Z,0.90
2019-05-11T17:16:38.593Z,0.88
2019-05-11T17:19:08.088Z,1.07
2019-05-11T17:21:38.289Z,1.17
2019-05-11T17:24:08.384Z,1.00
2019-05-11T17:26:38.563Z,1.22
2019-05-11T17:29:09.912Z,1.00
2019-05-11T17:31:38.460Z,1.35
2019-05-11T17:34:08.976Z,1.02
2019-05-11T17:36:37.976Z,1.05
2019-05-11T17:39:08.391Z,1.20
2019-05-11T17:41:38.699Z,1.50
2019-05-11T17:44:08.201Z,1.57
2019-05-11T17:46:38.488Z,0.88
2019-05-11T17:49:07.947Z,0.98
2019-05-11T17:51:37.886Z,1.00
2019-05-11T17:54:10.132Z,0.80
2019-05-11T17:56:40.495Z,0.90
2019-05-11T17:59:11.305Z,0.90
2019-05-11T18:01:40.414Z,0.60
2019-05-11T18:04:09.333Z,1.05
2019-05-11T18:06:39.184Z,1.00
2019-05-11T18:09:08.673Z,1.22
2019-05-11T18:11:38.113Z,1.12
2019-05-11T18:14:08.378Z,1.00
2019-05-11T18:16:37.567Z,0.80
2019-05-11T18:19:09.085Z,1.00
2019-05-11T18:21:40.679Z,1.10
2019-05-11T18:24:09.608Z,1.10
2019-05-11T18:26:38.623Z,1.07
2019-05-11T18:29:08.726Z,0.90
2019-05-11T18:31:38.424Z,1.12
2019-05-11T18:34:09.001Z,1.75
2019-05-11T18:36:38.316Z,1.27
2019-05-11T18:39:08.346Z,1.22
2019-05-11T18:41:39.089Z,0.70
2019-05-11T18:44:08.392Z,0.90
2019-05-11T18:46:38.893Z,0.80
2019-05-11T18:49:08.214Z,0.95
2019-05-11T18:51:37.802Z,0.95
2019-05-11T18:54:09.249Z,1.27
2019-05-11T18:56:38.248Z,1.20
2019-05-11T18:59:09.029Z,1.10
2019-05-11T19:01:38.263Z,1.22
2019-05-11T19:04:07.857Z,1.12
2019-05-11T19:06:37.941Z,1.22
2019-05-11T19:09:07.826Z,0.90
2019-05-11T19:11:38.271Z,1.30
2019-05-11T19:14:08.595Z,1.00
2019-05-11T19:16:38.931Z,1.00
2019-05-11T19:19:08.412Z,1.20
2019-05-11T19:21:37.369Z,1.20
2019-05-11T19:24:09.200Z,1.10
2019-05-11T19:26:36.950Z,1.07
2019-05-11T19:29:05.911Z,0.90
2019-05-11T19:31:35.209Z,0.70
2019-05-11T19:34:04.184Z,1.15
2019-05-11T19:36:33.199Z,0.98
2019-05-11T19:39:02.090Z,0.80
2019-05-11T19:41:31.059Z,0.82
2019-05-11T19:43:59.964Z,0.80
2019-05-11T19:46:28.963Z,0.78
2019-05-11T19:48:58.123Z,0.70
2019-05-11T19:51:29.117Z,0.55
2019-05-11T19:53:57.836Z,0.78
2019-05-11T19:56:28.954Z,0.70
2019-05-11T19:58:58.912Z,0.80
2019-05-11T20:01:28.015Z,0.70
2019-05-11T20:03:57.183Z,0.50
2019-05-11T20:06:28.116Z,0.60
2019-05-11T20:08:58.107Z,0.90
2019-05-11T20:11:27.903Z,0.70
2019-05-11T20:13:59.001Z,0.72
2019-05-11T20:16:27.720Z,0.40
2019-05-11T20:18:57.795Z,0.57
2019-05-11T20:21:29.074Z,0.50
2019-05-11T20:23:57.978Z,0.50
2019-05-11T20:26:28.584Z,0.57
2019-05-11T20:28:58.752Z,0.80
2019-05-11T20:31:27.889Z,0.57
2019-05-11T20:33:56.823Z,0.50
2019-05-11T20:36:25.848Z,0.40
2019-05-11T20:38:54.792Z,0.90
2019-05-11T20:41:23.724Z,0.45
2019-05-11T20:43:52.715Z,0.60
2019-05-11T20:46:21.630Z,0.90
2019-05-11T20:48:50.550Z,0.50
2019-05-11T20:51:33.214Z,0.90
2019-05-11T20:53:50.220Z,0.60
2019-05-11T20:56:19.150Z,0.62
2019-05-11T20:58:59.091Z,0.60
2019-05-11T21:01:28.873Z,0.88
2019-05-11T21:03:58.662Z,0.50
2019-05-11T21:06:29.354Z,0.50
2019-05-11T21:08:58.380Z,0.40
2019-05-11T21:11:27.567Z,0.90
2019-05-11T21:13:56.486Z,0.90
2019-05-11T21:16:25.402Z,0.60
2019-05-11T21:18:54.409Z,0.90
2019-05-11T21:21:23.469Z,0.70
2019-05-11T21:23:52.394Z,0.78
2019-05-11T21:26:21.442Z,0.68
2019-05-11T21:28:50.392Z,0.80
2019-05-11T21:31:19.309Z,0.93
2019-05-11T21:33:48.265Z,1.50
2019-05-11T21:36:17.959Z,0.72
2019-05-11T21:38:48.443Z,0.75
2019-05-11T21:41:17.621Z,0.70
2019-05-11T21:43:48.340Z,0.90
2019-05-11T21:46:18.036Z,1.02
2019-05-11T21:48:47.808Z,0.93
2019-05-11T21:51:18.188Z,0.75
2019-05-11T21:53:48.717Z,0.90
2019-05-11T21:56:18.732Z,1.00
2019-05-11T21:58:48.097Z,0.62
2019-05-11T22:04:03.048Z,0.87
2019-05-11T22:06:31.970Z,1.10
2019-05-11T22:09:00.926Z,1.32
2019-05-11T22:11:30.922Z,1.00
2019-05-11T22:13:59.921Z,0.82
2019-05-11T22:16:30.416Z,1.10
2019-05-11T22:18:59.625Z,0.95
2019-05-11T22:21:28.631Z,1.70
2019-05-11T22:23:58.576Z,0.90
2019-05-11T22:26:28.625Z,1.20
2019-05-11T22:28:57.752Z,0.93
2019-05-11T22:31:28.056Z,1.10
2019-05-11T22:33:58.314Z,1.62
2019-05-11T22:36:28.155Z,1.90
2019-05-11T22:38:58.747Z,1.50
2019-05-11T22:41:28.244Z,1.22
2019-05-11T22:43:57.128Z,1.07
2019-05-11T22:46:28.018Z,1.30
2019-05-11T22:48:58.299Z,1.00
2019-05-11T22:51:28.855Z,0.93
2019-05-11T22:53:59.123Z,0.90
2019-05-11T22:56:28.621Z,0.93
2019-05-11T22:58:58.701Z,0.82
2019-05-11T23:01:28.272Z,1.35
2019-05-11T23:03:58.398Z,1.32
2019-05-11T23:06:27.717Z,0.90
2019-05-11T23:08:58.550Z,1.02
2019-05-11T23:11:28.469Z,0.90
2019-05-11T23:13:57.651Z,1.45
2019-05-11T23:16:28.611Z,1.20
2019-05-11T23:18:57.124Z,1.12
2019-05-11T23:21:30.034Z,1.37
2019-05-11T23:23:58.302Z,1.10
2019-05-11T23:26:28.235Z,1.50
2019-05-11T23:28:57.956Z,1.15
2019-05-11T23:31:27.801Z,1.00
2019-05-11T23:33:57.864Z,1.05
2019-05-11T23:36:27.991Z,1.10
2019-05-11T23:38:58.550Z,1.10
2019-05-11T23:41:28.794Z,1.02
2019-05-11T23:43:58.441Z,1.45
2019-05-11T23:46:28.510Z,1.40
2019-05-11T23:48:58.217Z,1.30
2019-05-11T23:51:28.235Z,1.42
2019-05-11T23:53:58.835Z,1.20
2019-05-11T23:56:28.306Z,1.32
2019-05-11T23:58:57.899Z,1.40
